Assinippi, Massachusetts
Current Conditions -  °F | °C
As of 11:52 AM on Friday 31 Oct 2014 (Local Time) from KPYM Reporting Station
Broken Clouds Broken Clouds  
Wind Chill: 52°   Ceiling: 5000
Heat Index: 52°   Visibility: 10mi
Dew Point: 42°   Wind: 10mph
Humidity: 69%   Direction: 50°NE
Pressure: 30.01"   Gusts: NA
Location:  42.1315°N, 70.8467°W
Report Text: KPYM 311552Z AUTO 05009KT 10SM FEW025 BKN050 11/06 A3001 RMK AO2 SLP162 T01110056
Loading
Personal Weather Stations






























Interactive Weather Map
Tropical Storm Tracking
New forecast layout! Learn more

10-Day Weather Forecast

Advertisements
Track Severe Weather on mobile